sensor_id;sensor_type;location;lat;lon;timestamp;temperature;humidity
65460;DHT22;52058;49.822;6.754;2023-09-12T00:01:19;19.98;94.80
65460;DHT22;52058;49.822;6.754;2023-09-12T00:03:46;20.01;94.66
65460;DHT22;52058;49.822;6.754;2023-09-12T00:06:12;20.02;94.59
65460;DHT22;52058;49.822;6.754;2023-09-12T00:08:39;20.02;94.62
65460;DHT22;52058;49.822;6.754;2023-09-12T00:11:06;20.04;94.94
65460;DHT22;52058;49.822;6.754;2023-09-12T00:13:36;20.04;94.92
65460;DHT22;52058;49.822;6.754;2023-09-12T00:16:04;20.05;95.39
65460;DHT22;52058;49.822;6.754;2023-09-12T00:18:31;20.02;94.94
65460;DHT22;52058;49.822;6.754;2023-09-12T00:20:59;20.01;94.80
65460;DHT22;52058;49.822;6.754;2023-09-12T00:23:27;20.01;94.82
65460;DHT22;52058;49.822;6.754;2023-09-12T00:25:53;19.98;95.19
65460;DHT22;52058;49.822;6.754;2023-09-12T00:28:20;19.95;95.63
65460;DHT22;52058;49.822;6.754;2023-09-12T00:30:47;19.89;95.52
65460;DHT22;52058;49.822;6.754;2023-09-12T00:33:15;19.78;95.78
65460;DHT22;52058;49.822;6.754;2023-09-12T00:35:41;19.74;95.89
65460;DHT22;52058;49.822;6.754;2023-09-12T00:38:09;19.68;95.94
65460;DHT22;52058;49.822;6.754;2023-09-12T00:40:36;19.64;96.08
65460;DHT22;52058;49.822;6.754;2023-09-12T00:43:03;19.60;96.53
65460;DHT22;52058;49.822;6.754;2023-09-12T00:45:30;19.61;96.17
65460;DHT22;52058;49.822;6.754;2023-09-12T00:47:58;19.56;96.24
65460;DHT22;52058;49.822;6.754;2023-09-12T00:50:27;19.49;96.75
65460;DHT22;52058;49.822;6.754;2023-09-12T00:52:55;19.43;96.89
65460;DHT22;52058;49.822;6.754;2023-09-12T00:55:21;19.40;97.04
65460;DHT22;52058;49.822;6.754;2023-09-12T00:57:48;19.33;97.14
65460;DHT22;52058;49.822;6.754;2023-09-12T01:00:16;19.36;97.32
65460;DHT22;52058;49.822;6.754;2023-09-12T01:02:44;19.33;97.18
65460;DHT22;52058;49.822;6.754;2023-09-12T01:05:13;19.30;97.03
65460;DHT22;52058;49.822;6.754;2023-09-12T01:07:43;19.23;97.02
65460;DHT22;52058;49.822;6.754;2023-09-12T01:10:10;19.18;97.08
65460;DHT22;52058;49.822;6.754;2023-09-12T01:12:37;19.13;97.25
65460;DHT22;52058;49.822;6.754;2023-09-12T01:15:04;19.05;97.67
65460;DHT22;52058;49.822;6.754;2023-09-12T01:17:38;18.96;97.80
65460;DHT22;52058;49.822;6.754;2023-09-12T01:20:08;18.85;97.96
65460;DHT22;52058;49.822;6.754;2023-09-12T01:22:56;18.78;98.25
65460;DHT22;52058;49.822;6.754;2023-09-12T01:25:48;18.75;98.40
65460;DHT22;52058;49.822;6.754;2023-09-12T01:28:23;18.73;98.40
65460;DHT22;52058;49.822;6.754;2023-09-12T01:30:51;18.67;98.51
65460;DHT22;52058;49.822;6.754;2023-09-12T01:33:18;18.60;98.53
65460;DHT22;52058;49.822;6.754;2023-09-12T01:35:45;18.51;98.63
65460;DHT22;52058;49.822;6.754;2023-09-12T01:38:13;18.44;98.90
65460;DHT22;52058;49.822;6.754;2023-09-12T01:40:44;18.43;98.94
65460;DHT22;52058;49.822;6.754;2023-09-12T01:43:12;18.36;98.84
65460;DHT22;52058;49.822;6.754;2023-09-12T01:45:44;18.29;99.14
65460;DHT22;52058;49.822;6.754;2023-09-12T01:48:13;18.27;99.27
65460;DHT22;52058;49.822;6.754;2023-09-12T01:50:43;18.24;99.31
65460;DHT22;52058;49.822;6.754;2023-09-12T01:53:10;18.18;99.68
65460;DHT22;52058;49.822;6.754;2023-09-12T01:55:39;18.18;99.84
65460;DHT22;52058;49.822;6.754;2023-09-12T01:58:07;18.14;99.79
65460;DHT22;52058;49.822;6.754;2023-09-12T02:00:34;18.12;99.90
65460;DHT22;52058;49.822;6.754;2023-09-12T02:03:03;18.10;99.84
65460;DHT22;52058;49.822;6.754;2023-09-12T02:05:30;18.03;99.94
65460;DHT22;52058;49.822;6.754;2023-09-12T02:07:57;18.02;99.99
65460;DHT22;52058;49.822;6.754;2023-09-12T02:10:25;17.97;99.99
65460;DHT22;52058;49.822;6.754;2023-09-12T02:12:52;17.97;99.99
65460;DHT22;52058;49.822;6.754;2023-09-12T02:15:18;17.90;99.98
65460;DHT22;52058;49.822;6.754;2023-09-12T02:17:45;17.81;99.79
65460;DHT22;52058;49.822;6.754;2023-09-12T02:20:13;17.78;99.91
65460;DHT22;52058;49.822;6.754;2023-09-12T02:22:39;17.75;99.99
65460;DHT22;52058;49.822;6.754;2023-09-12T02:25:07;17.69;99.99
65460;DHT22;52058;49.822;6.754;2023-09-12T02:27:34;17.66;99.99
65460;DHT22;52058;49.822;6.754;2023-09-12T02:30:01;17.65;99.99
65460;DHT22;52058;49.822;6.754;2023-09-12T02:32:28;17.62;99.99
65460;DHT22;52058;49.822;6.754;2023-09-12T02:34:55;17.59;99.99
65460;DHT22;52058;49.822;6.754;2023-09-12T02:37:23;17.55;99.99
65460;DHT22;52058;49.822;6.754;2023-09-12T02:39:50;17.56;99.99
65460;DHT22;52058;49.822;6.754;2023-09-12T02:42:16;17.51;99.99
65460;DHT22;52058;49.822;6.754;2023-09-12T02:44:43;17.46;99.99
65460;DHT22;52058;49.822;6.754;2023-09-12T02:47:10;17.51;99.99
65460;DHT22;52058;49.822;6.754;2023-09-12T02:49:36;17.51;99.99
65460;DHT22;52058;49.822;6.754;2023-09-12T02:52:03;17.48;99.99
65460;DHT22;52058;49.822;6.754;2023-09-12T02:54:31;17.44;99.99
65460;DHT22;52058;49.822;6.754;2023-09-12T02:56:58;17.42;99.99
65460;DHT22;52058;49.822;6.754;2023-09-12T03:02:00;17.36;99.99
65460;DHT22;52058;49.822;6.754;2023-09-12T03:04:27;17.36;99.99
65460;DHT22;52058;49.822;6.754;2023-09-12T03:06:53;17.36;99.99
65460;DHT22;52058;49.822;6.754;2023-09-12T03:09:20;17.38;99.99
65460;DHT22;52058;49.822;6.754;2023-09-12T03:11:49;17.39;99.99
65460;DHT22;52058;49.822;6.754;2023-09-12T03:14:15;17.41;99.99
65460;DHT22;52058;49.822;6.754;2023-09-12T03:16:42;17.38;99.99
65460;DHT22;52058;49.822;6.754;2023-09-12T03:19:09;17.41;99.99
65460;DHT22;52058;49.822;6.754;2023-09-12T03:21:35;17.38;99.99
65460;DHT22;52058;49.822;6.754;2023-09-12T03:24:02;17.41;99.99
65460;DHT22;52058;49.822;6.754;2023-09-12T03:26:29;17.42;99.99
65460;DHT22;52058;49.822;6.754;2023-09-12T03:28:56;17.45;99.99
65460;DHT22;52058;49.822;6.754;2023-09-12T03:31:23;17.49;99.99
65460;DHT22;52058;49.822;6.754;2023-09-12T03:33:51;17.52;99.99
65460;DHT22;52058;49.822;6.754;2023-09-12T03:36:17;17.56;99.99
65460;DHT22;52058;49.822;6.754;2023-09-12T03:38:44;17.58;99.93
65460;DHT22;52058;49.822;6.754;2023-09-12T03:41:10;17.65;99.69
65460;DHT22;52058;49.822;6.754;2023-09-12T03:43:37;17.71;99.46
65460;DHT22;52058;49.822;6.754;2023-09-12T03:46:05;17.73;99.32
65460;DHT22;52058;49.822;6.754;2023-09-12T03:48:32;17.75;99.26
65460;DHT22;52058;49.822;6.754;2023-09-12T03:50:59;17.76;99.34
65460;DHT22;52058;49.822;6.754;2023-09-12T03:53:26;17.78;99.49
65460;DHT22;52058;49.822;6.754;2023-09-12T03:55:53;17.79;99.48
65460;DHT22;52058;49.822;6.754;2023-09-12T03:58:20;17.82;99.34
65460;DHT22;52058;49.822;6.754;2023-09-12T04:00:46;17.86;99.31
65460;DHT22;52058;49.822;6.754;2023-09-12T04:03:14;17.85;99.22
65460;DHT22;52058;49.822;6.754;2023-09-12T04:05:41;17.85;99.09
65460;DHT22;52058;49.822;6.754;2023-09-12T04:08:08;17.86;99.16
65460;DHT22;52058;49.822;6.754;2023-09-12T04:10:34;17.86;99.14
65460;DHT22;52058;49.822;6.754;2023-09-12T04:13:01;17.86;99.00
65460;DHT22;52058;49.822;6.754;2023-09-12T04:15:28;17.89;99.11
65460;DHT22;52058;49.822;6.754;2023-09-12T04:17:54;17.90;99.33
65460;DHT22;52058;49.822;6.754;2023-09-12T04:20:22;17.90;99.21
65460;DHT22;52058;49.822;6.754;2023-09-12T04:22:49;17.87;99.33
65460;DHT22;52058;49.822;6.754;2023-09-12T04:25:16;17.85;99.27
65460;DHT22;52058;49.822;6.754;2023-09-12T04:27:45;17.81;99.53
65460;DHT22;52058;49.822;6.754;2023-09-12T04:30:12;17.79;99.39
65460;DHT22;52058;49.822;6.754;2023-09-12T04:32:39;17.71;99.80
65460;DHT22;52058;49.822;6.754;2023-09-12T04:35:06;17.72;99.77
65460;DHT22;52058;49.822;6.754;2023-09-12T04:37:34;17.66;99.74
65460;DHT22;52058;49.822;6.754;2023-09-12T04:40:01;17.63;99.98
65460;DHT22;52058;49.822;6.754;2023-09-12T04:42:30;17.63;99.99
65460;DHT22;52058;49.822;6.754;2023-09-12T04:44:57;17.61;99.99
65460;DHT22;52058;49.822;6.754;2023-09-12T04:47:23;17.59;99.99
65460;DHT22;52058;49.822;6.754;2023-09-12T04:49:50;17.58;99.99
65460;DHT22;52058;49.822;6.754;2023-09-12T04:52:16;17.54;99.99
65460;DHT22;52058;49.822;6.754;2023-09-12T04:54:44;17.49;99.99
65460;DHT22;52058;49.822;6.754;2023-09-12T04:57:11;17.41;99.99
65460;DHT22;52058;49.822;6.754;2023-09-12T04:59:38;17.36;99.99
65460;DHT22;52058;49.822;6.754;2023-09-12T05:02:04;17.34;99.99
65460;DHT22;52058;49.822;6.754;2023-09-12T05:04:31;17.30;99.99
65460;DHT22;52058;49.822;6.754;2023-09-12T05:06:58;17.21;99.99
65460;DHT22;52058;49.822;6.754;2023-09-12T05:09:24;17.17;99.99
65460;DHT22;52058;49.822;6.754;2023-09-12T05:11:53;17.14;99.99
65460;DHT22;52058;49.822;6.754;2023-09-12T05:14:19;17.15;99.99
65460;DHT22;52058;49.822;6.754;2023-09-12T05:16:46;17.08;99.99
65460;DHT22;52058;49.822;6.754;2023-09-12T05:19:12;17.08;99.99
65460;DHT22;52058;49.822;6.754;2023-09-12T05:21:39;17.07;99.99
65460;DHT22;52058;49.822;6.754;2023-09-12T05:24:06;17.11;99.99
65460;DHT22;52058;49.822;6.754;2023-09-12T05:26:33;17.11;99.99
65460;DHT22;52058;49.822;6.754;2023-09-12T05:29:01;17.10;99.99
65460;DHT22;52058;49.822;6.754;2023-09-12T05:31:27;17.13;99.99
65460;DHT22;52058;49.822;6.754;2023-09-12T05:33:54;17.11;99.99
65460;DHT22;52058;49.822;6.754;2023-09-12T05:36:21;17.10;99.99
65460;DHT22;52058;49.822;6.754;2023-09-12T05:38:47;17.07;99.99
65460;DHT22;52058;49.822;6.754;2023-09-12T05:41:14;17.08;99.99
65460;DHT22;52058;49.822;6.754;2023-09-12T05:43:41;17.10;99.99
65460;DHT22;52058;49.822;6.754;2023-09-12T05:46:09;17.08;99.99
65460;DHT22;52058;49.822;6.754;2023-09-12T05:48:35;17.17;99.99
65460;DHT22;52058;49.822;6.754;2023-09-12T05:51:02;17.23;99.99
65460;DHT22;52058;49.822;6.754;2023-09-12T05:53:29;17.34;99.99
65460;DHT22;52058;49.822;6.754;2023-09-12T05:55:56;17.45;99.99
65460;DHT22;52058;49.822;6.754;2023-09-12T05:58:22;17.49;99.99
65460;DHT22;52058;49.822;6.754;2023-09-12T06:00:49;17.52;99.99
65460;DHT22;52058;49.822;6.754;2023-09-12T06:03:17;17.54;99.99
65460;DHT22;52058;49.822;6.754;2023-09-12T06:05:44;17.62;99.99
65460;DHT22;52058;49.822;6.754;2023-09-12T06:08:10;17.62;99.99
65460;DHT22;52058;49.822;6.754;2023-09-12T06:10:37;17.62;99.99
65460;DHT22;52058;49.822;6.754;2023-09-12T06:13:03;17.68;99.99
65460;DHT22;52058;49.822;6.754;2023-09-12T06:15:30;17.73;99.99
65460;DHT22;52058;49.822;6.754;2023-09-12T06:17:57;17.81;99.99
65460;DHT22;52058;49.822;6.754;2023-09-12T06:20:25;17.90;99.99
65460;DHT22;52058;49.822;6.754;2023-09-12T06:22:51;17.99;99.99
65460;DHT22;52058;49.822;6.754;2023-09-12T06:25:18;18.13;99.99
65460;DHT22;52058;49.822;6.754;2023-09-12T06:27:44;18.26;99.85
65460;DHT22;52058;49.822;6.754;2023-09-12T06:30:12;18.29;99.64
65460;DHT22;52058;49.822;6.754;2023-09-12T06:32:39;18.34;99.82
65460;DHT22;52058;49.822;6.754;2023-09-12T06:35:07;18.41;99.50
65460;DHT22;52058;49.822;6.754;2023-09-12T06:37:37;18.44;99.72
65460;DHT22;52058;49.822;6.754;2023-09-12T06:40:04;18.52;99.68
65460;DHT22;52058;49.822;6.754;2023-09-12T06:42:31;18.57;99.32
65460;DHT22;52058;49.822;6.754;2023-09-12T06:44:58;18.64;99.45
65460;DHT22;52058;49.822;6.754;2023-09-12T06:47:24;18.64;99.07
65460;DHT22;52058;49.822;6.754;2023-09-12T06:49:51;18.71;99.08
65460;DHT22;52058;49.822;6.754;2023-09-12T06:52:18;18.81;99.13
65460;DHT22;52058;49.822;6.754;2023-09-12T06:54:46;18.89;99.31
65460;DHT22;52058;49.822;6.754;2023-09-12T06:57:12;19.05;98.05
65460;DHT22;52058;49.822;6.754;2023-09-12T06:59:39;19.12;98.10
65460;DHT22;52058;49.822;6.754;2023-09-12T07:02:05;19.22;97.89
65460;DHT22;52058;49.822;6.754;2023-09-12T07:04:32;19.31;97.49
65460;DHT22;52058;49.822;6.754;2023-09-12T07:06:59;19.39;96.67
65460;DHT22;52058;49.822;6.754;2023-09-12T07:09:25;19.43;96.42
65460;DHT22;52058;49.822;6.754;2023-09-12T07:11:53;19.51;96.17
65460;DHT22;52058;49.822;6.754;2023-09-12T07:14:20;19.56;95.82
65460;DHT22;52058;49.822;6.754;2023-09-12T07:16:47;19.67;95.70
65460;DHT22;52058;49.822;6.754;2023-09-12T07:19:13;19.80;95.84
65460;DHT22;52058;49.822;6.754;2023-09-12T07:21:40;19.92;95.84
65460;DHT22;52058;49.822;6.754;2023-09-12T07:24:07;20.07;95.51
65460;DHT22;52058;49.822;6.754;2023-09-12T07:26:34;20.22;94.88
65460;DHT22;52058;49.822;6.754;2023-09-12T07:29:02;20.40;94.85
65460;DHT22;52058;49.822;6.754;2023-09-12T07:31:30;20.50;94.68
65460;DHT22;52058;49.822;6.754;2023-09-12T07:33:57;20.60;93.42
65460;DHT22;52058;49.822;6.754;2023-09-12T07:36:24;20.63;93.35
65460;DHT22;52058;49.822;6.754;2023-09-12T07:38:51;20.66;93.78
65460;DHT22;52058;49.822;6.754;2023-09-12T07:41:17;20.73;93.29
65460;DHT22;52058;49.822;6.754;2023-09-12T07:43:44;20.76;93.26
65460;DHT22;52058;49.822;6.754;2023-09-12T07:46:12;20.86;91.89
65460;DHT22;52058;49.822;6.754;2023-09-12T07:48:39;20.88;91.82
65460;DHT22;52058;49.822;6.754;2023-09-12T07:51:11;21.07;91.12
65460;DHT22;52058;49.822;6.754;2023-09-12T07:53:39;21.20;90.98
65460;DHT22;52058;49.822;6.754;2023-09-12T07:56:08;21.25;90.10
65460;DHT22;52058;49.822;6.754;2023-09-12T07:58:35;21.39;90.24
65460;DHT22;52058;49.822;6.754;2023-09-12T08:01:04;21.48;89.73
65460;DHT22;52058;49.822;6.754;2023-09-12T08:03:33;21.54;89.39
65460;DHT22;52058;49.822;6.754;2023-09-12T08:05:59;21.55;89.02
65460;DHT22;52058;49.822;6.754;2023-09-12T08:08:26;21.59;89.22
65460;DHT22;52058;49.822;6.754;2023-09-12T08:10:53;21.75;89.12
65460;DHT22;52058;49.822;6.754;2023-09-12T08:13:19;21.78;88.40
65460;DHT22;52058;49.822;6.754;2023-09-12T08:15:46;21.85;87.92
65460;DHT22;52058;49.822;6.754;2023-09-12T08:18:13;21.92;88.30
65460;DHT22;52058;49.822;6.754;2023-09-12T08:20:42;21.96;87.61
65460;DHT22;52058;49.822;6.754;2023-09-12T08:23:08;22.03;87.57
65460;DHT22;52058;49.822;6.754;2023-09-12T08:25:35;22.12;87.62
65460;DHT22;52058;49.822;6.754;2023-09-12T08:28:02;22.17;87.19
65460;DHT22;52058;49.822;6.754;2023-09-12T08:30:29;22.18;86.93
65460;DHT22;52058;49.822;6.754;2023-09-12T08:32:56;22.21;86.71
65460;DHT22;52058;49.822;6.754;2023-09-12T08:35:22;22.27;87.35
65460;DHT22;52058;49.822;6.754;2023-09-12T08:37:50;22.34;86.70
65460;DHT22;52058;49.822;6.754;2023-09-12T08:40:17;22.40;86.35
65460;DHT22;52058;49.822;6.754;2023-09-12T08:42:44;22.43;85.87
65460;DHT22;52058;49.822;6.754;2023-09-12T08:45:13;22.50;86.08
65460;DHT22;52058;49.822;6.754;2023-09-12T08:47:41;22.54;85.80
65460;DHT22;52058;49.822;6.754;2023-09-12T08:50:10;22.61;86.10
65460;DHT22;52058;49.822;6.754;2023-09-12T08:52:37;22.68;86.40
65460;DHT22;52058;49.822;6.754;2023-09-12T08:55:06;22.71;85.67
65460;DHT22;52058;49.822;6.754;2023-09-12T08:57:35;22.74;85.25
65460;DHT22;52058;49.822;6.754;2023-09-12T09:00:03;22.81;85.36
65460;DHT22;52058;49.822;6.754;2023-09-12T09:02:32;22.91;84.84
65460;DHT22;52058;49.822;6.754;2023-09-12T09:05:02;23.02;84.88
65460;DHT22;52058;49.822;6.754;2023-09-12T09:07:32;23.13;85.55
65460;DHT22;52058;49.822;6.754;2023-09-12T09:09:59;23.19;85.00
65460;DHT22;52058;49.822;6.754;2023-09-12T09:12:30;23.42;84.15
65460;DHT22;52058;49.822;6.754;2023-09-12T09:14:57;23.64;82.85
65460;DHT22;52058;49.822;6.754;2023-09-12T09:17:26;23.71;81.99
65460;DHT22;52058;49.822;6.754;2023-09-12T09:19:52;23.84;82.08
65460;DHT22;52058;49.822;6.754;2023-09-12T09:22:19;23.90;82.66
65460;DHT22;52058;49.822;6.754;2023-09-12T09:24:48;23.94;82.08
65460;DHT22;52058;49.822;6.754;2023-09-12T09:27:33;23.93;82.11
65460;DHT22;52058;49.822;6.754;2023-09-12T09:30:01;23.91;82.57
65460;DHT22;52058;49.822;6.754;2023-09-12T09:32:28;23.97;81.68
65460;DHT22;52058;49.822;6.754;2023-09-12T09:34:55;24.04;81.05
65460;DHT22;52058;49.822;6.754;2023-09-12T09:37:22;24.17;81.65
65460;DHT22;52058;49.822;6.754;2023-09-12T09:39:51;24.25;81.86
65460;DHT22;52058;49.822;6.754;2023-09-12T09:42:17;24.45;80.90
65460;DHT22;52058;49.822;6.754;2023-09-12T09:44:46;24.46;79.87
65460;DHT22;52058;49.822;6.754;2023-09-12T09:47:13;24.76;79.70
65460;DHT22;52058;49.822;6.754;2023-09-12T09:49:40;24.96;77.93
65460;DHT22;52058;49.822;6.754;2023-09-12T09:52:07;25.20;77.25
65460;DHT22;52058;49.822;6.754;2023-09-12T09:54:34;25.55;78.53
65460;DHT22;52058;49.822;6.754;2023-09-12T09:57:00;25.75;77.26
65460;DHT22;52058;49.822;6.754;2023-09-12T09:59:28;25.99;76.91
65460;DHT22;52058;49.822;6.754;2023-09-12T10:01:58;25.97;77.25
65460;DHT22;52058;49.822;6.754;2023-09-12T10:04:27;26.03;76.67
65460;DHT22;52058;49.822;6.754;2023-09-12T10:06:56;25.90;76.28
65460;DHT22;52058;49.822;6.754;2023-09-12T10:09:26;25.81;76.79
65460;DHT22;52058;49.822;6.754;2023-09-12T10:11:54;25.73;78.12
65460;DHT22;52058;49.822;6.754;2023-09-12T10:14:22;25.61;77.00
65460;DHT22;52058;49.822;6.754;2023-09-12T10:16:50;25.48;79.11
65460;DHT22;52058;49.822;6.754;2023-09-12T10:19:23;25.28;77.44
65460;DHT22;52058;49.822;6.754;2023-09-12T10:21:54;25.38;78.15
65460;DHT22;52058;49.822;6.754;2023-09-12T10:24:21;25.49;78.03
65460;DHT22;52058;49.822;6.754;2023-09-12T10:26:50;25.68;79.84
65460;DHT22;52058;49.822;6.754;2023-09-12T10:29:17;25.82;78.75
65460;DHT22;52058;49.822;6.754;2023-09-12T10:31:43;25.82;78.20
65460;DHT22;52058;49.822;6.754;2023-09-12T10:34:12;25.88;77.90
65460;DHT22;52058;49.822;6.754;2023-09-12T10:36:42;25.99;80.67
65460;DHT22;52058;49.822;6.754;2023-09-12T10:39:10;25.95;78.83
65460;DHT22;52058;49.822;6.754;2023-09-12T10:41:39;26.03;78.33
65460;DHT22;52058;49.822;6.754;2023-09-12T10:44:09;26.03;78.13
65460;DHT22;52058;49.822;6.754;2023-09-12T10:46:37;25.96;77.49
65460;DHT22;52058;49.822;6.754;2023-09-12T10:49:06;25.95;78.05
65460;DHT22;52058;49.822;6.754;2023-09-12T10:51:37;26.00;78.50
65460;DHT22;52058;49.822;6.754;2023-09-12T10:54:06;26.07;80.04
65460;DHT22;52058;49.822;6.754;2023-09-12T10:56:33;26.27;79.18
65460;DHT22;52058;49.822;6.754;2023-09-12T10:59:13;26.43;79.23
65460;DHT22;52058;49.822;6.754;2023-09-12T11:01:41;26.43;77.11
65460;DHT22;52058;49.822;6.754;2023-09-12T11:04:37;26.54;77.48
65460;DHT22;52058;49.822;6.754;2023-09-12T11:07:43;26.82;77.76
65460;DHT22;52058;49.822;6.754;2023-09-12T11:10:19;27.08;75.41
65460;DHT22;52058;49.822;6.754;2023-09-12T11:12:48;27.40;73.43
65460;DHT22;52058;49.822;6.754;2023-09-12T11:15:16;27.78;72.86
65460;DHT22;52058;49.822;6.754;2023-09-12T11:17:43;28.00;72.47
65460;DHT22;52058;49.822;6.754;2023-09-12T11:20:12;28.01;70.55
65460;DHT22;52058;49.822;6.754;2023-09-12T11:22:40;28.19;70.17
65460;DHT22;52058;49.822;6.754;2023-09-12T11:25:18;28.32;70.54
65460;DHT22;52058;49.822;6.754;2023-09-12T11:28:02;28.41;70.67
65460;DHT22;52058;49.822;6.754;2023-09-12T11:30:29;28.35;70.96
65460;DHT22;52058;49.822;6.754;2023-09-12T11:32:57;28.21;70.60
65460;DHT22;52058;49.822;6.754;2023-09-12T11:35:24;28.04;71.98
65460;DHT22;52058;49.822;6.754;2023-09-12T11:37:53;27.91;71.13
65460;DHT22;52058;49.822;6.754;2023-09-12T11:40:24;27.94;72.57
65460;DHT22;52058;49.822;6.754;2023-09-12T11:42:58;27.80;72.13
65460;DHT22;52058;49.822;6.754;2023-09-12T11:45:54;27.45;72.65
65460;DHT22;52058;49.822;6.754;2023-09-12T11:48:56;27.29;72.29
65460;DHT22;52058;49.822;6.754;2023-09-12T11:51:26;27.33;72.22
65460;DHT22;52058;49.822;6.754;2023-09-12T12:07:39;27.66;73.17
65460;DHT22;52058;49.822;6.754;2023-09-12T12:10:08;27.54;72.63
65460;DHT22;52058;49.822;6.754;2023-09-12T12:12:34;27.59;72.43
65460;DHT22;52058;49.822;6.754;2023-09-12T12:15:02;27.60;71.82
65460;DHT22;52058;49.822;6.754;2023-09-12T12:17:29;27.64;72.83
65460;DHT22;52058;49.822;6.754;2023-09-12T12:19:56;27.74;71.62
65460;DHT22;52058;49.822;6.754;2023-09-12T12:22:22;27.93;71.25
65460;DHT22;52058;49.822;6.754;2023-09-12T12:24:50;28.01;70.35
65460;DHT22;52058;49.822;6.754;2023-09-12T12:27:17;28.14;69.83
65460;DHT22;52058;49.822;6.754;2023-09-12T12:29:45;28.14;69.63
65460;DHT22;52058;49.822;6.754;2023-09-12T12:32:15;28.24;69.49
65460;DHT22;52058;49.822;6.754;2023-09-12T12:34:42;28.55;69.62
65460;DHT22;52058;49.822;6.754;2023-09-12T12:37:13;28.70;69.65
65460;DHT22;52058;49.822;6.754;2023-09-12T12:39:42;28.84;68.36
65460;DHT22;52058;49.822;6.754;2023-09-12T12:42:10;28.92;67.81
65460;DHT22;52058;49.822;6.754;2023-09-12T12:44:37;28.95;68.13
65460;DHT22;52058;49.822;6.754;2023-09-12T12:47:07;28.93;67.15
65460;DHT22;52058;49.822;6.754;2023-09-12T12:49:38;29.25;68.48
65460;DHT22;52058;49.822;6.754;2023-09-12T12:52:05;29.50;66.82
65460;DHT22;52058;49.822;6.754;2023-09-12T12:54:32;29.41;66.47
65460;DHT22;52058;49.822;6.754;2023-09-12T12:56:59;29.57;66.07
65460;DHT22;52058;49.822;6.754;2023-09-12T12:59:28;29.78;65.61
65460;DHT22;52058;49.822;6.754;2023-09-12T13:01:59;29.69;65.43
65460;DHT22;52058;49.822;6.754;2023-09-12T13:04:26;29.81;66.34
65460;DHT22;52058;49.822;6.754;2023-09-12T13:06:53;29.62;66.78
65460;DHT22;52058;49.822;6.754;2023-09-12T13:09:19;29.55;67.21
65460;DHT22;52058;49.822;6.754;2023-09-12T13:11:46;29.34;66.72
65460;DHT22;52058;49.822;6.754;2023-09-12T13:14:12;29.39;68.88
65460;DHT22;52058;49.822;6.754;2023-09-12T13:16:40;29.71;68.32
65460;DHT22;52058;49.822;6.754;2023-09-12T13:19:07;31.94;60.85
65460;DHT22;52058;49.822;6.754;2023-09-12T13:21:34;32.89;59.39
65460;DHT22;52058;49.822;6.754;2023-09-12T13:24:00;34.83;54.82
65460;DHT22;52058;49.822;6.754;2023-09-12T13:26:27;36.02;51.22
65460;DHT22;52058;49.822;6.754;2023-09-12T13:28:54;36.64;50.91
65460;DHT22;52058;49.822;6.754;2023-09-12T13:31:20;37.69;47.97
65460;DHT22;52058;49.822;6.754;2023-09-12T13:33:48;38.48;46.89
65460;DHT22;52058;49.822;6.754;2023-09-12T13:36:15;38.75;46.40
65460;DHT22;52058;49.822;6.754;2023-09-12T13:38:41;39.70;44.35
65460;DHT22;52058;49.822;6.754;2023-09-12T13:41:08;39.33;45.06
65460;DHT22;52058;49.822;6.754;2023-09-12T13:43:34;39.50;46.51
65460;DHT22;52058;49.822;6.754;2023-09-12T13:46:01;39.41;45.20
65460;DHT22;52058;49.822;6.754;2023-09-12T13:48:29;39.33;44.93
65460;DHT22;52058;49.822;6.754;2023-09-12T13:50:56;39.36;44.35
65460;DHT22;52058;49.822;6.754;2023-09-12T13:53:23;38.42;46.26
65460;DHT22;52058;49.822;6.754;2023-09-12T13:55:50;38.65;46.22
65460;DHT22;52058;49.822;6.754;2023-09-12T13:58:16;38.87;46.54
65460;DHT22;52058;49.822;6.754;2023-09-12T14:00:43;38.59;46.86
65460;DHT22;52058;49.822;6.754;2023-09-12T14:03:10;38.39;47.07
65460;DHT22;52058;49.822;6.754;2023-09-12T14:05:36;37.08;49.67
65460;DHT22;52058;49.822;6.754;2023-09-12T14:08:05;35.69;51.06
65460;DHT22;52058;49.822;6.754;2023-09-12T14:10:31;34.57;54.12
65460;DHT22;52058;49.822;6.754;2023-09-12T14:12:58;35.99;50.53
65460;DHT22;52058;49.822;6.754;2023-09-12T14:15:25;36.39;49.41
65460;DHT22;52058;49.822;6.754;2023-09-12T14:17:52;37.19;48.73
65460;DHT22;52058;49.822;6.754;2023-09-12T14:20:18;38.07;46.40
65460;DHT22;52058;49.822;6.754;2023-09-12T14:22:46;39.03;45.89
65460;DHT22;52058;49.822;6.754;2023-09-12T14:25:18;38.79;46.18
65460;DHT22;52058;49.822;6.754;2023-09-12T15:01:45;33.27;55.51
65460;DHT22;52058;49.822;6.754;2023-09-12T15:04:12;33.41;57.20
65460;DHT22;52058;49.822;6.754;2023-09-12T15:06:38;32.78;59.52
65460;DHT22;52058;49.822;6.754;2023-09-12T15:09:05;32.55;58.79
65460;DHT22;52058;49.822;6.754;2023-09-12T15:11:31;32.38;58.67
65460;DHT22;52058;49.822;6.754;2023-09-12T15:14:01;32.59;58.15
65460;DHT22;52058;49.822;6.754;2023-09-12T15:16:28;32.48;57.93
65460;DHT22;52058;49.822;6.754;2023-09-12T15:18:57;32.29;58.92
65460;DHT22;52058;49.822;6.754;2023-09-12T15:21:24;31.96;58.80
65460;DHT22;52058;49.822;6.754;2023-09-12T15:23:51;31.56;60.54
65460;DHT22;52058;49.822;6.754;2023-09-12T15:26:17;31.66;59.41
65460;DHT22;52058;49.822;6.754;2023-09-12T15:28:44;32.78;58.73
65460;DHT22;52058;49.822;6.754;2023-09-12T15:31:10;33.27;55.44
65460;DHT22;52058;49.822;6.754;2023-09-12T15:33:37;34.18;54.93
65460;DHT22;52058;49.822;6.754;2023-09-12T15:36:05;34.42;53.32
65460;DHT22;52058;49.822;6.754;2023-09-12T15:38:31;34.39;54.46
65460;DHT22;52058;49.822;6.754;2023-09-12T15:40:58;34.04;53.63
65460;DHT22;52058;49.822;6.754;2023-09-12T15:43:28;33.85;54.32
65460;DHT22;52058;49.822;6.754;2023-09-12T15:45:54;33.27;55.91
65460;DHT22;52058;49.822;6.754;2023-09-12T15:48:21;32.75;57.16
65460;DHT22;52058;49.822;6.754;2023-09-12T15:50:48;32.35;56.53
65460;DHT22;52058;49.822;6.754;2023-09-12T15:53:16;31.84;58.32
65460;DHT22;52058;49.822;6.754;2023-09-12T15:55:42;31.28;60.46
65460;DHT22;52058;49.822;6.754;2023-09-12T15:58:09;30.99;62.00
65460;DHT22;52058;49.822;6.754;2023-09-12T16:00:36;30.50;62.29
65460;DHT22;52058;49.822;6.754;2023-09-12T16:03:03;30.24;61.95
65460;DHT22;52058;49.822;6.754;2023-09-12T16:05:29;29.89;62.41
65460;DHT22;52058;49.822;6.754;2023-09-12T16:07:56;29.45;63.49
65460;DHT22;52058;49.822;6.754;2023-09-12T16:10:24;29.34;63.49
65460;DHT22;52058;49.822;6.754;2023-09-12T16:12:51;29.00;63.77
65460;DHT22;52058;49.822;6.754;2023-09-12T16:15:17;28.76;63.99
65460;DHT22;52058;49.822;6.754;2023-09-12T16:17:44;28.52;64.93
65460;DHT22;52058;49.822;6.754;2023-09-12T16:20:11;28.31;65.30
65460;DHT22;52058;49.822;6.754;2023-09-12T16:22:39;28.09;66.69
65460;DHT22;52058;49.822;6.754;2023-09-12T16:25:06;27.90;67.82